createdAt,value
2022-09-20T00:00:16.682Z,100.0
2022-09-20T00:01:17.352Z,100.0
2022-09-20T00:02:16.907Z,100.0
2022-09-20T00:03:17.371Z,100.0
2022-09-20T00:04:16.791Z,100.0
2022-09-20T00:05:17.305Z,100.0
2022-09-20T00:06:16.775Z,100.0
2022-09-20T00:07:17.196Z,100.0
2022-09-20T00:08:16.617Z,100.0
2022-09-20T00:09:17.063Z,100.0
2022-09-20T00:10:16.513Z,100.0
2022-09-20T00:11:16.970Z,100.0
2022-09-20T00:12:16.617Z,100.0
2022-09-20T00:13:17.079Z,100.0
2022-09-20T00:14:16.519Z,100.0
2022-09-20T00:15:16.984Z,100.0
2022-09-20T00:16:16.556Z,100.0
2022-09-20T00:17:17.054Z,100.0
2022-09-20T00:18:16.495Z,100.0
2022-09-20T00:19:16.920Z,100.0
2022-09-20T00:20:17.368Z,100.0
2022-09-20T00:21:16.797Z,100.0
2022-09-20T00:22:16.512Z,100.0
2022-09-20T00:23:16.955Z,100.0
2022-09-20T00:24:17.415Z,100.0
2022-09-20T00:25:16.861Z,100.0
2022-09-20T00:26:17.308Z,100.0
2022-09-20T00:27:16.750Z,100.0
2022-09-20T00:28:17.214Z,100.0
2022-09-20T00:29:16.660Z,100.0
2022-09-20T00:30:17.120Z,100.0
2022-09-20T00:31:16.707Z,100.0
2022-09-20T00:32:17.338Z,100.0
2022-09-20T00:33:16.861Z,100.0
2022-09-20T00:34:17.280Z,100.0
2022-09-20T00:35:16.709Z,100.0
2022-09-20T00:36:17.143Z,100.0
2022-09-20T00:37:16.578Z,100.0
2022-09-20T00:38:17.005Z,100.0
2022-09-20T00:39:16.437Z,100.0
2022-09-20T00:40:16.989Z,100.0
2022-09-20T00:41:16.483Z,100.0
2022-09-20T00:42:17.034Z,100.0
2022-09-20T00:43:16.522Z,100.0
2022-09-20T00:44:17.009Z,100.0
2022-09-20T00:45:16.464Z,100.0
2022-09-20T00:46:17.100Z,100.0
2022-09-20T00:47:16.638Z,100.0
2022-09-20T00:48:17.073Z,100.0
2022-09-20T00:49:16.486Z,100.0
2022-09-20T00:50:16.902Z,100.0
2022-09-20T00:51:17.329Z,100.0
2022-09-20T00:52:16.980Z,100.0
2022-09-20T00:53:16.428Z,100.0
2022-09-20T00:54:20.840Z,100.0
2022-09-20T00:55:17.442Z,100.0
2022-09-20T00:56:16.898Z,100.0
2022-09-20T00:57:17.351Z,100.0
2022-09-20T00:58:16.811Z,100.0
2022-09-20T00:59:17.257Z,100.0
2022-09-20T01:00:16.715Z,100.0
2022-09-20T01:01:17.366Z,100.0
2022-09-20T01:02:16.864Z,100.0
2022-09-20T01:03:17.362Z,100.0
2022-09-20T01:04:16.795Z,100.0
2022-09-20T01:05:17.244Z,100.0
2022-09-20T01:06:16.687Z,100.0
2022-09-20T01:07:17.139Z,100.0
2022-09-20T01:08:16.595Z,100.0
2022-09-20T01:09:17.034Z,100.0
2022-09-20T01:10:16.484Z,100.0
2022-09-20T01:11:16.959Z,100.0
2022-09-20T01:12:16.614Z,100.0
2022-09-20T01:13:17.074Z,100.0
2022-09-20T01:14:16.526Z,100.0
2022-09-20T01:15:17.003Z,100.0
2022-09-20T01:16:16.574Z,100.0
2022-09-20T01:17:17.015Z,100.0
2022-09-20T01:18:16.479Z,100.0
2022-09-20T01:19:16.900Z,100.0
2022-09-20T01:20:17.384Z,100.0
2022-09-20T01:21:16.837Z,100.0
2022-09-20T01:22:16.992Z,100.0
2022-09-20T01:23:16.441Z,100.0
2022-09-20T01:24:16.915Z,100.0
2022-09-20T01:25:17.381Z,100.0
2022-09-20T01:26:16.859Z,100.0
2022-09-20T01:27:17.311Z,100.0
2022-09-20T01:28:16.770Z,100.0
2022-09-20T01:29:17.243Z,100.0
2022-09-20T01:30:16.676Z,100.0
2022-09-20T01:31:17.201Z,100.0
2022-09-20T01:32:16.708Z,100.0
2022-09-20T01:33:17.143Z,100.0
2022-09-20T01:34:16.573Z,100.0
2022-09-20T01:35:16.999Z,100.0
2022-09-20T01:36:16.453Z,100.0
2022-09-20T01:37:16.946Z,100.0
2022-09-20T01:38:17.417Z,100.0
2022-09-20T01:39:16.886Z,100.0
2022-09-20T01:40:17.447Z,100.0
2022-09-20T01:41:16.944Z,100.0
2022-09-20T01:42:16.751Z,100.0
2022-09-20T01:43:17.202Z,100.0
2022-09-20T01:44:16.638Z,100.0
2022-09-20T01:45:17.056Z,100.0
2022-09-20T01:46:16.615Z,100.0
2022-09-20T01:47:17.134Z,100.0
2022-09-20T01:48:16.544Z,100.0
2022-09-20T01:49:16.968Z,100.0
2022-09-20T01:50:17.470Z,100.0
2022-09-20T01:51:16.938Z,100.0
2022-09-20T01:52:17.395Z,100.0
2022-09-20T01:53:16.843Z,100.0
2022-09-20T01:54:17.302Z,100.0
2022-09-20T01:55:16.771Z,100.0
2022-09-20T01:56:17.223Z,100.0
2022-09-20T01:57:16.671Z,100.0
2022-09-20T01:58:17.156Z,100.0
2022-09-20T01:59:24.833Z,100.0
2022-09-20T02:00:16.431Z,100.0
2022-09-20T02:01:17.022Z,100.0
2022-09-20T02:02:16.826Z,100.0
2022-09-20T02:03:17.300Z,100.0
2022-09-20T02:04:16.730Z,100.0
2022-09-20T02:05:17.188Z,100.0
2022-09-20T02:06:16.669Z,100.0
2022-09-20T02:07:17.123Z,100.0
2022-09-20T02:08:16.610Z,100.0
2022-09-20T02:09:17.075Z,100.0
2022-09-20T02:10:16.526Z,100.0
2022-09-20T02:11:16.972Z,100.0
2022-09-20T02:12:16.617Z,100.0
2022-09-20T02:13:17.060Z,100.0
2022-09-20T02:14:16.489Z,100.0
2022-09-20T02:15:16.932Z,100.0
2022-09-20T02:16:17.458Z,100.0
2022-09-20T02:17:16.999Z,100.0
2022-09-20T02:18:16.425Z,100.0
2022-09-20T02:19:16.845Z,100.0
2022-09-20T02:20:16.777Z,100.0
2022-09-20T02:21:17.219Z,100.0
2022-09-20T02:22:16.944Z,100.0
2022-09-20T02:23:17.409Z,100.0
2022-09-20T02:24:16.882Z,100.0
2022-09-20T02:25:17.353Z,100.0
2022-09-20T02:26:16.821Z,100.0
2022-09-20T02:27:17.251Z,100.0
2022-09-20T02:28:16.681Z,100.0
2022-09-20T02:29:17.095Z,100.0
2022-09-20T02:30:16.519Z,100.0
2022-09-20T02:31:17.132Z,100.0
2022-09-20T02:32:16.591Z,100.0
2022-09-20T02:33:17.033Z,100.0
2022-09-20T02:34:16.522Z,100.0
2022-09-20T02:35:17.007Z,100.0
2022-09-20T02:36:16.461Z,100.0
2022-09-20T02:37:16.944Z,100.0
2022-09-20T02:38:17.394Z,100.0
2022-09-20T02:39:16.878Z,100.0
2022-09-20T02:40:17.459Z,100.0
2022-09-20T02:41:16.935Z,100.0
2022-09-20T02:42:17.023Z,100.0
2022-09-20T02:43:16.458Z,100.0
2022-09-20T02:44:16.930Z,100.0
2022-09-20T02:45:17.353Z,100.0
2022-09-20T02:46:16.986Z,100.0
2022-09-20T02:47:16.498Z,100.0
2022-09-20T02:48:16.911Z,100.0
2022-09-20T02:49:17.388Z,100.0
2022-09-20T02:50:16.845Z,100.0
2022-09-20T02:51:17.307Z,100.0
2022-09-20T02:52:16.843Z,100.0
2022-09-20T02:53:17.330Z,100.0
2022-09-20T02:54:16.783Z,100.0
2022-09-20T02:55:17.301Z,100.0
2022-09-20T02:56:16.749Z,100.0
2022-09-20T02:57:17.167Z,100.0
2022-09-20T02:58:16.600Z,100.0
2022-09-20T02:59:17.030Z,100.0
2022-09-20T03:00:16.460Z,100.0
2022-09-20T03:01:17.063Z,100.0
2022-09-20T03:02:17.120Z,100.0
2022-09-20T03:03:16.616Z,100.0
2022-09-20T03:04:17.077Z,100.0
2022-09-20T03:05:16.530Z,100.0
2022-09-20T03:06:16.998Z,100.0
2022-09-20T03:07:16.498Z,100.0
2022-09-20T03:08:16.990Z,100.0
2022-09-20T03:09:16.468Z,100.0
2022-09-20T03:10:16.913Z,100.0
2022-09-20T03:11:17.335Z,100.0
2022-09-20T03:12:17.196Z,100.0
2022-09-20T03:13:16.638Z,100.0
2022-09-20T03:14:17.093Z,100.0
2022-09-20T03:15:16.762Z,100.0
2022-09-20T03:16:17.292Z,100.0
2022-09-20T03:17:16.751Z,100.0
2022-09-20T03:18:17.206Z,100.0
2022-09-20T03:19:16.648Z,100.0
2022-09-20T03:20:17.106Z,100.0
2022-09-20T03:21:16.550Z,100.0
2022-09-20T03:22:16.951Z,100.0
2022-09-20T03:23:17.420Z,100.0
2022-09-20T03:24:16.876Z,100.0
2022-09-20T03:25:17.402Z,100.0
2022-09-20T03:26:16.819Z,100.0
2022-09-20T03:27:17.253Z,100.0
2022-09-20T03:28:16.682Z,100.0
2022-09-20T03:29:17.099Z,100.0
2022-09-20T03:30:16.769Z,100.0
2022-09-20T03:31:17.197Z,100.0
2022-09-20T03:32:16.660Z,100.0
2022-09-20T03:33:17.167Z,100.0
2022-09-20T03:34:16.609Z,100.0
2022-09-20T03:35:17.061Z,100.0
2022-09-20T03:36:16.515Z,100.0
2022-09-20T03:37:16.997Z,100.0
2022-09-20T03:38:16.448Z,100.0
2022-09-20T03:39:16.910Z,100.0
2022-09-20T03:40:17.481Z,100.0
2022-09-20T03:41:16.933Z,100.0
2022-09-20T03:42:16.934Z,100.0
2022-09-20T03:43:17.347Z,100.0
2022-09-20T03:44:16.785Z,100.0
2022-09-20T03:45:17.225Z,100.0
2022-09-20T03:46:16.940Z,100.0
2022-09-20T03:47:17.406Z,100.0
2022-09-20T03:48:16.855Z,100.0
2022-09-20T03:49:17.314Z,100.0
2022-09-20T03:50:16.790Z,100.0
2022-09-20T03:51:17.258Z,100.0
2022-09-20T03:52:16.868Z,100.0
2022-09-20T03:53:17.312Z,100.0
2022-09-20T03:54:16.768Z,100.0
2022-09-20T03:55:17.193Z,100.0
2022-09-20T03:56:16.617Z,100.0
2022-09-20T03:57:17.058Z,100.0
2022-09-20T03:58:16.498Z,100.0
2022-09-20T03:59:16.947Z,100.0
2022-09-20T04:00:17.387Z,100.0
2022-09-20T04:01:16.956Z,100.0
2022-09-20T04:02:16.680Z,100.0
2022-09-20T04:03:17.177Z,100.0
2022-09-20T04:04:16.641Z,100.0
2022-09-20T04:05:17.086Z,100.0
2022-09-20T04:06:16.536Z,100.0
2022-09-20T04:07:16.992Z,100.0
2022-09-20T04:08:16.456Z,100.0
2022-09-20T04:09:16.892Z,100.0
2022-09-20T04:10:17.379Z,100.0
2022-09-20T04:11:16.812Z,100.0
2022-09-20T04:12:17.193Z,100.0
2022-09-20T04:13:16.716Z,100.0
2022-09-20T04:14:17.136Z,100.0
2022-09-20T04:15:16.582Z,100.0
2022-09-20T04:16:17.125Z,100.0
2022-09-20T04:17:16.606Z,100.0
2022-09-20T04:18:17.062Z,100.0
2022-09-20T04:19:16.507Z,100.0
2022-09-20T04:20:16.963Z,100.0
2022-09-20T04:21:17.428Z,100.0
2022-09-20T04:22:17.222Z,100.0
2022-09-20T04:23:16.684Z,100.0
2022-09-20T04:24:17.153Z,100.0
2022-09-20T04:25:16.575Z,100.0
2022-09-20T04:26:17.018Z,100.0
2022-09-20T04:27:16.460Z,100.0
2022-09-20T04:28:16.906Z,100.0
2022-09-20T04:29:17.363Z,100.0
2022-09-20T04:30:16.783Z,100.0
2022-09-20T04:31:21.117Z,100.0
2022-09-20T04:32:16.893Z,100.0
2022-09-20T04:33:17.437Z,100.0
2022-09-20T04:34:16.884Z,100.0
2022-09-20T04:35:17.355Z,100.0
2022-09-20T04:36:16.815Z,100.0
2022-09-20T04:37:17.281Z,100.0
2022-09-20T04:38:16.762Z,100.0
2022-09-20T04:39:17.213Z,100.0
2022-09-20T04:40:16.821Z,100.0
2022-09-20T04:41:17.284Z,100.0
2022-09-20T04:42:17.112Z,100.0
2022-09-20T04:43:16.577Z,100.0
2022-09-20T04:44:17.003Z,100.0
2022-09-20T04:45:16.420Z,100.0
2022-09-20T04:46:17.084Z,100.0
2022-09-20T04:47:16.583Z,100.0
2022-09-20T04:48:17.052Z,100.0
2022-09-20T04:49:16.543Z,100.0
2022-09-20T04:50:17.019Z,100.0
2022-09-20T04:51:16.484Z,100.0
2022-09-20T04:52:17.158Z,100.0
2022-09-20T04:53:16.625Z,100.0
2022-09-20T04:54:17.050Z,100.0
2022-09-20T04:55:16.507Z,100.0
2022-09-20T04:56:16.916Z,100.0
2022-09-20T04:57:17.384Z,100.0
2022-09-20T04:58:16.801Z,100.0
2022-09-20T04:59:17.244Z,100.0
2022-09-20T05:00:16.684Z,100.0
2022-09-20T05:01:17.488Z,100.0
2022-09-20T05:02:17.117Z,100.0
2022-09-20T05:03:16.636Z,100.0
2022-09-20T05:04:17.086Z,100.0
2022-09-20T05:05:16.561Z,100.0
2022-09-20T05:06:17.044Z,100.0
2022-09-20T05:07:16.494Z,100.0
2022-09-20T05:08:16.928Z,100.0
2022-09-20T05:09:17.352Z,100.0
2022-09-20T05:10:16.773Z,100.0
2022-09-20T05:11:17.216Z,100.0
2022-09-20T05:12:16.644Z,100.0
2022-09-20T05:13:17.063Z,100.0
2022-09-20T05:14:16.521Z,100.0
2022-09-20T05:15:16.941Z,100.0
2022-09-20T05:16:17.515Z,100.0
2022-09-20T05:17:16.987Z,100.0
2022-09-20T05:18:16.437Z,100.0
2022-09-20T05:19:16.907Z,100.0
2022-09-20T05:20:17.788Z,100.0
2022-09-20T05:21:17.241Z,100.0
2022-09-20T05:22:16.764Z,100.0
2022-09-20T05:23:17.217Z,100.0
2022-09-20T05:24:16.995Z,100.0
2022-09-20T05:25:16.448Z,100.0
2022-09-20T05:26:16.872Z,100.0
2022-09-20T05:27:17.286Z,100.0
2022-09-20T05:28:16.772Z,100.0
2022-09-20T05:29:17.204Z,100.0
2022-09-20T05:30:16.681Z,100.0
2022-09-20T05:31:17.195Z,100.0
2022-09-20T05:32:16.618Z,100.0
2022-09-20T05:33:17.081Z,100.0
2022-09-20T05:34:16.538Z,100.0
2022-09-20T05:35:16.995Z,100.0
2022-09-20T05:36:16.454Z,100.0
2022-09-20T05:37:16.892Z,100.0
2022-09-20T05:38:17.403Z,100.0
2022-09-20T05:39:16.912Z,100.0
2022-09-20T05:40:17.556Z,100.0
2022-09-20T05:41:16.980Z,100.0
2022-09-20T05:42:16.791Z,100.0
2022-09-20T05:43:17.225Z,99.9
2022-09-20T05:44:16.692Z,99.8
2022-09-20T05:45:17.170Z,99.8
2022-09-20T05:46:16.653Z,99.8
2022-09-20T05:47:17.101Z,99.8
2022-09-20T05:48:16.571Z,99.7
2022-09-20T05:49:17.033Z,99.7
2022-09-20T05:50:16.495Z,99.8
2022-09-20T05:51:16.987Z,99.8
2022-09-20T05:52:16.494Z,99.8
2022-09-20T05:53:16.947Z,99.8
2022-09-20T05:54:17.360Z,99.7
2022-09-20T05:55:16.816Z,99.8
2022-09-20T05:56:17.260Z,99.8
2022-09-20T05:57:16.718Z,99.8
2022-09-20T05:58:17.142Z,99.7
2022-09-20T05:59:16.588Z,99.7
2022-09-20T06:00:17.061Z,99.7
2022-09-20T06:01:16.619Z,99.5
2022-09-20T06:02:17.394Z,99.5
2022-09-20T06:03:16.864Z,99.5
2022-09-20T06:04:17.307Z,99.5
2022-09-20T06:05:16.738Z,99.4
2022-09-20T06:06:17.172Z,99.3
2022-09-20T06:07:16.592Z,99.5
2022-09-20T06:08:17.017Z,99.5
2022-09-20T06:09:16.445Z,99.4
2022-09-20T06:10:16.889Z,99.3
2022-09-20T06:11:17.327Z,99.3
2022-09-20T06:12:17.132Z,99.3
2022-09-20T06:13:16.617Z,99.2
2022-09-20T06:14:17.105Z,99.1
2022-09-20T06:15:16.577Z,99.1
2022-09-20T06:16:17.130Z,99.0
2022-09-20T06:17:16.608Z,99.0
2022-09-20T06:18:17.060Z,99.0
2022-09-20T06:19:16.506Z,98.9
2022-09-20T06:20:16.928Z,98.8
2022-09-20T06:21:17.347Z,98.8
2022-09-20T06:22:16.961Z,98.9
2022-09-20T06:23:17.404Z,98.9
2022-09-20T06:24:16.852Z,98.8
2022-09-20T06:25:17.788Z,98.8
2022-09-20T06:26:17.260Z,98.8
2022-09-20T06:27:16.725Z,98.8
2022-09-20T06:28:17.221Z,98.8
2022-09-20T06:29:16.715Z,98.8
2022-09-20T06:30:17.183Z,98.8
2022-09-20T06:31:16.641Z,98.8
2022-09-20T06:32:17.179Z,98.8
2022-09-20T06:33:16.615Z,98.8
2022-09-20T06:34:17.044Z,98.7
2022-09-20T06:35:16.495Z,98.5
2022-09-20T06:36:16.915Z,98.6
2022-09-20T06:37:17.349Z,98.6
2022-09-20T06:38:16.778Z,98.5
2022-09-20T06:39:17.206Z,98.3
2022-09-20T06:40:16.715Z,98.3
2022-09-20T06:41:17.242Z,98.4
2022-09-20T06:42:16.526Z,98.2
2022-09-20T06:43:16.987Z,98.2
2022-09-20T06:44:16.491Z,98.1
2022-09-20T06:45:16.964Z,98.1
2022-09-20T06:46:17.515Z,98.2
2022-09-20T06:47:17.024Z,98.2
2022-09-20T06:48:16.484Z,98.2
2022-09-20T06:49:16.918Z,98.2
2022-09-20T06:50:17.405Z,98.2
2022-09-20T06:51:16.840Z,98.3
2022-09-20T06:52:17.095Z,98.3
2022-09-20T06:53:16.521Z,98.3
2022-09-20T06:54:16.954Z,98.4
2022-09-20T06:55:17.372Z,98.3
2022-09-20T06:56:16.824Z,98.2
2022-09-20T06:57:17.324Z,98.2
2022-09-20T06:58:16.768Z,98.0
2022-09-20T06:59:17.218Z,98.0
2022-09-20T07:00:16.663Z,98.2
2022-09-20T07:01:30.346Z,98.3
2022-09-20T07:02:17.363Z,98.3
2022-09-20T07:03:16.835Z,98.2
2022-09-20T07:04:17.261Z,98.3
2022-09-20T07:05:16.705Z,98.2
2022-09-20T07:06:17.155Z,98.1
2022-09-20T07:07:16.569Z,97.8
2022-09-20T07:08:17.034Z,97.6
2022-09-20T07:09:16.456Z,97.4
2022-09-20T07:10:16.975Z,97.4
2022-09-20T07:11:16.451Z,97.2
2022-09-20T07:12:17.302Z,97.2
2022-09-20T07:13:16.768Z,97.1
2022-09-20T07:14:17.266Z,96.8
2022-09-20T07:15:16.726Z,96.6
2022-09-20T07:16:17.359Z,97.2
2022-09-20T07:17:16.892Z,97.0
2022-09-20T07:18:17.339Z,96.7
2022-09-20T07:19:16.773Z,96.7
2022-09-20T07:20:21.687Z,96.3
2022-09-20T07:21:17.152Z,96.2
2022-09-20T07:22:16.707Z,96.1
2022-09-20T07:23:17.132Z,96.0
2022-09-20T07:24:16.554Z,96.1
2022-09-20T07:25:17.022Z,96.3
2022-09-20T07:26:16.483Z,96.5
2022-09-20T07:27:16.941Z,96.5
2022-09-20T07:28:17.391Z,96.0
2022-09-20T07:29:16.858Z,95.6
2022-09-20T07:30:17.347Z,95.6
2022-09-20T07:31:16.976Z,96.2
2022-09-20T07:32:17.395Z,95.5
2022-09-20T07:33:16.840Z,95.4
2022-09-20T07:34:17.288Z,95.8
2022-09-20T07:35:16.724Z,95.5
2022-09-20T07:36:17.161Z,95.1
2022-09-20T07:37:16.595Z,95.2
2022-09-20T07:38:17.022Z,95.2
2022-09-20T07:39:16.463Z,95.4
2022-09-20T07:40:17.076Z,95.3
2022-09-20T07:41:16.555Z,95.2
2022-09-20T07:42:16.979Z,95.0
2022-09-20T07:43:16.461Z,95.5
2022-09-20T07:44:16.925Z,95.0
2022-09-20T07:45:17.414Z,95.2
2022-09-20T07:46:16.847Z,95.0
2022-09-20T07:47:17.273Z,94.9
2022-09-20T07:48:16.692Z,94.8
2022-09-20T07:49:17.153Z,94.5
2022-09-20T07:50:16.583Z,94.3
2022-09-20T07:51:16.997Z,94.0
2022-09-20T07:52:16.639Z,94.0
2022-09-20T07:53:17.095Z,93.8
2022-09-20T07:54:16.563Z,94.0
2022-09-20T07:55:17.049Z,94.0
2022-09-20T07:56:16.519Z,94.8
2022-09-20T07:57:16.978Z,94.0
2022-09-20T07:58:16.430Z,93.5
2022-09-20T07:59:16.907Z,93.2
2022-09-20T08:00:17.389Z,93.2
2022-09-20T08:01:16.894Z,92.5
2022-09-20T08:02:16.868Z,91.8
2022-09-20T08:03:17.332Z,92.1
2022-09-20T08:04:16.775Z,91.8
2022-09-20T08:05:17.191Z,91.8
2022-09-20T08:06:16.633Z,91.5
2022-09-20T08:07:17.066Z,92.3
2022-09-20T08:08:16.541Z,91.3
2022-09-20T08:09:17.012Z,90.9
2022-09-20T08:10:16.514Z,91.3
2022-09-20T08:11:17.018Z,91.5
2022-09-20T08:14:17.699Z,91.0
2022-09-20T08:15:17.250Z,90.8
2022-09-20T08:16:16.784Z,90.5
2022-09-20T08:17:17.216Z,91.2
2022-09-20T08:18:16.659Z,90.5
2022-09-20T08:19:17.116Z,90.6
2022-09-20T08:20:16.544Z,91.3
2022-09-20T08:21:17.013Z,90.8
2022-09-20T08:22:16.815Z,90.8
2022-09-20T08:23:24.005Z,91.3
2022-09-20T08:24:16.675Z,91.5
2022-09-20T08:25:17.113Z,90.0
2022-09-20T08:26:16.580Z,90.2
2022-09-20T08:27:17.040Z,90.7
2022-09-20T08:28:16.526Z,90.2
2022-09-20T08:29:17.015Z,90.6
2022-09-20T08:30:16.452Z,90.3
2022-09-20T08:31:17.054Z,91.0
2022-09-20T08:32:17.329Z,90.7
2022-09-20T08:33:16.755Z,90.5
2022-09-20T08:34:17.179Z,90.9
2022-09-20T08:35:16.604Z,90.3
2022-09-20T08:36:17.041Z,90.8
2022-09-20T08:37:16.479Z,90.6
2022-09-20T08:39:58.078Z,90.0
2022-09-20T08:40:16.983Z,90.0
2022-09-20T08:41:16.463Z,89.7
2022-09-20T08:42:17.268Z,89.5
2022-09-20T08:43:22.783Z,90.1
2022-09-20T08:44:17.240Z,90.3
2022-09-20T08:45:33.644Z,89.6
2022-09-20T08:46:22.884Z,89.7
2022-09-20T08:47:17.396Z,90.0
2022-09-20T08:48:16.840Z,90.3
2022-09-20T08:49:17.261Z,90.0
2022-09-20T08:50:18.183Z,90.3
2022-09-20T08:51:23.194Z,90.0
2022-09-20T08:52:16.928Z,90.8
2022-09-20T08:53:21.701Z,91.6
2022-09-20T08:54:17.147Z,92.0
2022-09-20T08:55:16.618Z,91.6
2022-09-20T08:56:17.154Z,91.8
2022-09-20T08:57:16.595Z,91.8
2022-09-20T08:58:17.044Z,92.5
2022-09-20T08:59:16.496Z,92.7
2022-09-20T09:00:16.945Z,93.2
2022-09-20T09:01:17.485Z,92.8
2022-09-20T09:02:17.530Z,92.7
2022-09-20T09:03:17.053Z,93.1
2022-09-20T09:04:16.488Z,93.1
2022-09-20T09:05:16.902Z,92.5
2022-09-20T09:06:18.746Z,92.7
2022-09-20T09:07:17.211Z,93.2
2022-09-20T09:08:17.056Z,92.3
2022-09-20T09:09:16.524Z,92.0
2022-09-20T09:10:17.137Z,92.6
2022-09-20T09:11:16.610Z,92.8
2022-09-20T09:12:17.043Z,92.3
2022-09-20T09:13:16.528Z,93.2
2022-09-20T09:14:16.950Z,92.2
2022-09-20T09:15:17.906Z,91.5
2022-09-20T09:16:25.819Z,91.4
2022-09-20T09:17:16.752Z,91.3
2022-09-20T09:18:17.170Z,91.2
2022-09-20T09:19:16.594Z,91.0
2022-09-20T09:20:17.174Z,90.3
2022-09-20T09:21:16.646Z,91.0
2022-09-20T09:22:17.035Z,90.9
2022-09-20T09:23:16.555Z,90.5
2022-09-20T09:24:17.017Z,91.0
2022-09-20T09:25:16.466Z,90.6
2022-09-20T09:26:16.932Z,90.9
2022-09-20T09:27:17.394Z,90.3
2022-09-20T09:28:16.848Z,90.3
2022-09-20T09:29:17.301Z,89.7
2022-09-20T09:30:16.843Z,90.2
2022-09-20T09:31:17.435Z,89.3
2022-09-20T09:32:16.817Z,88.6
2022-09-20T09:33:17.235Z,89.3
2022-09-20T09:34:16.669Z,87.7
2022-09-20T09:35:17.104Z,85.7
2022-09-20T09:36:16.587Z,85.1
2022-09-20T09:37:17.055Z,83.0
2022-09-20T09:38:16.540Z,82.6
2022-09-20T09:39:17.005Z,82.0
2022-09-20T09:40:16.930Z,81.5
2022-09-20T09:41:16.483Z,79.5
2022-09-20T09:42:16.590Z,80.4
2022-09-20T09:43:17.055Z,80.4
2022-09-20T09:44:16.508Z,80.4
2022-09-20T09:45:16.927Z,81.3
2022-09-20T09:46:17.519Z,82.2
2022-09-20T09:47:17.000Z,82.9
2022-09-20T09:48:16.473Z,82.1
2022-09-20T09:49:17.283Z,82.6
2022-09-20T09:50:16.792Z,82.8
2022-09-20T09:51:17.250Z,83.8
2022-09-20T09:52:16.972Z,83.4
2022-09-20T09:53:17.425Z,84.7
2022-09-20T09:54:16.907Z,84.3
2022-09-20T09:55:17.400Z,82.5
2022-09-20T09:56:16.850Z,82.7
2022-09-20T09:57:17.303Z,83.0
2022-09-20T09:58:16.747Z,82.9
2022-09-20T09:59:17.188Z,82.4
2022-09-20T10:00:22.601Z,82.8
2022-09-20T10:01:17.344Z,83.0
2022-09-20T10:02:16.732Z,83.6
2022-09-20T10:03:17.191Z,83.2
2022-09-20T10:04:16.625Z,83.9
2022-09-20T10:05:17.065Z,84.2
2022-09-20T10:06:16.530Z,83.5
2022-09-20T10:07:16.993Z,83.8
2022-09-20T10:08:16.449Z,84.7
2022-09-20T10:09:16.904Z,85.8
2022-09-20T10:10:17.385Z,85.1
2022-09-20T10:11:16.863Z,85.6
2022-09-20T10:12:16.694Z,85.3
2022-09-20T10:13:17.165Z,85.1
2022-09-20T10:14:16.618Z,85.7
2022-09-20T10:15:17.074Z,85.8
2022-09-20T10:16:16.581Z,86.7
2022-09-20T10:17:17.058Z,86.1
2022-09-20T10:18:16.491Z,86.2
2022-09-20T10:19:22.846Z,85.8
2022-09-20T10:20:17.455Z,86.0
2022-09-20T10:21:16.917Z,86.2
2022-09-20T10:22:17.367Z,85.8
2022-09-20T10:23:58.939Z,85.3
2022-09-20T10:24:17.341Z,85.9
2022-09-20T10:25:16.806Z,86.5
2022-09-20T10:26:17.266Z,85.8
2022-09-20T10:27:16.731Z,83.5
2022-09-20T10:28:17.167Z,83.5
2022-09-20T10:29:16.612Z,83.5
2022-09-20T10:30:17.072Z,83.6
2022-09-20T10:31:16.663Z,83.2
2022-09-20T10:32:16.615Z,84.0
2022-09-20T10:33:17.066Z,84.1
2022-09-20T10:34:16.489Z,83.2
2022-09-20T10:35:16.965Z,83.3
2022-09-20T10:36:17.414Z,83.2
2022-09-20T10:37:16.927Z,83.2
2022-09-20T10:38:17.503Z,83.2
2022-09-20T10:39:16.973Z,83.2
2022-09-20T10:40:16.628Z,83.1
2022-09-20T10:41:17.178Z,82.8
2022-09-20T10:42:16.508Z,82.7
2022-09-20T10:43:16.953Z,82.7
2022-09-20T10:44:17.396Z,83.2
2022-09-20T10:45:44.277Z,82.1
2022-09-20T10:46:31.677Z,82.8
2022-09-20T10:47:16.725Z,82.3
2022-09-20T10:48:17.321Z,82.2
2022-09-20T10:49:16.814Z,82.9
2022-09-20T10:50:17.319Z,81.8
2022-09-20T10:51:16.803Z,82.0
2022-09-20T10:52:16.701Z,81.9
2022-09-20T10:53:17.208Z,81.8
2022-09-20T10:54:16.663Z,80.6
2022-09-20T10:55:17.116Z,80.5
2022-09-20T10:56:16.581Z,82.0
2022-09-20T10:57:17.005Z,81.8
2022-09-20T10:58:16.430Z,80.7
2022-09-20T10:59:16.860Z,82.2
2022-09-20T11:00:17.302Z,81.9
2022-09-20T11:01:16.843Z,82.0
2022-09-20T11:02:17.443Z,81.0
2022-09-20T11:03:16.898Z,80.7
2022-09-20T11:04:17.370Z,80.0
2022-09-20T11:05:16.829Z,80.5
2022-09-20T11:06:17.301Z,81.1
2022-09-20T11:07:16.757Z,80.2
2022-09-20T11:08:17.250Z,81.8
2022-09-20T11:09:16.719Z,80.7
2022-09-20T11:10:17.314Z,77.8
2022-09-20T11:11:16.750Z,78.0
2022-09-20T11:12:16.520Z,79.7
2022-09-20T11:13:16.960Z,79.1
2022-09-20T11:14:17.431Z,78.4
2022-09-20T11:15:16.860Z,76.2
2022-09-20T11:16:17.409Z,77.6
2022-09-20T11:17:16.848Z,77.9
2022-09-20T11:18:17.405Z,77.5
2022-09-20T11:19:16.895Z,77.6
2022-09-20T11:20:17.399Z,78.2
2022-09-20T11:21:16.857Z,80.4
2022-09-20T11:22:16.476Z,80.0
2022-09-20T11:23:16.951Z,79.8
2022-09-20T11:24:17.409Z,80.2
2022-09-20T11:25:22.392Z,80.0
2022-09-20T11:26:16.469Z,80.8
2022-09-20T11:27:16.908Z,79.6
2022-09-20T11:28:17.334Z,80.0
2022-09-20T11:29:16.769Z,79.0
2022-09-20T11:30:17.216Z,79.6
2022-09-20T11:31:16.741Z,79.1
2022-09-20T11:32:17.259Z,79.1
2022-09-20T11:33:16.739Z,79.5
2022-09-20T11:34:17.246Z,79.3
2022-09-20T11:35:16.750Z,79.8
2022-09-20T11:36:17.202Z,78.6
2022-09-20T11:37:16.664Z,79.8
2022-09-20T11:38:17.132Z,79.1
2022-09-20T11:39:16.584Z,79.6
2022-09-20T11:40:17.176Z,79.2
2022-09-20T11:41:16.630Z,78.8
2022-09-20T11:42:16.927Z,77.3
2022-09-20T11:43:17.380Z,77.0
2022-09-20T11:44:16.844Z,76.6
2022-09-20T11:45:17.262Z,76.7
2022-09-20T11:46:16.843Z,76.8
2022-09-20T11:47:50.291Z,75.8
2022-09-20T11:48:16.772Z,76.5
2022-09-20T11:49:17.217Z,76.5
2022-09-20T11:50:16.674Z,75.3
2022-09-20T11:51:17.141Z,76.6
2022-09-20T11:52:16.753Z,75.9
2022-09-20T11:53:17.251Z,77.5
2022-09-20T11:54:16.727Z,76.2
2022-09-20T11:55:17.183Z,75.9
2022-09-20T11:56:16.628Z,77.3
2022-09-20T11:57:17.099Z,75.7
2022-09-20T11:58:16.581Z,76.3
2022-09-20T11:59:17.038Z,75.9
2022-09-20T12:00:16.460Z,75.6
2022-09-20T12:01:16.918Z,76.5
2022-09-20T12:02:17.572Z,77.0
2022-09-20T12:03:17.191Z,76.3
2022-09-20T12:04:32.683Z,76.4
2022-09-20T12:05:16.755Z,78.2
2022-09-20T12:06:17.236Z,78.0
2022-09-20T12:07:18.443Z,77.1
2022-09-20T12:08:17.046Z,77.7
2022-09-20T12:09:16.491Z,79.3
2022-09-20T12:10:16.936Z,78.0
2022-09-20T12:11:17.371Z,78.8
2022-09-20T12:12:17.200Z,79.0
2022-09-20T12:13:16.642Z,79.0
2022-09-20T12:14:17.096Z,78.5
2022-09-20T12:15:16.541Z,78.8
2022-09-20T12:16:17.211Z,78.2
2022-09-20T12:17:16.692Z,77.9
2022-09-20T12:18:17.156Z,77.7
2022-09-20T12:19:16.615Z,78.3
2022-09-20T12:20:19.690Z,76.8
2022-09-20T12:21:17.162Z,76.1
2022-09-20T12:22:17.033Z,76.7
2022-09-20T12:23:16.521Z,76.5
2022-09-20T12:24:17.021Z,77.4
2022-09-20T12:25:16.459Z,76.7
2022-09-20T12:26:16.873Z,76.6
2022-09-20T12:27:17.290Z,77.0
2022-09-20T12:28:16.731Z,76.7
2022-09-20T12:29:17.176Z,77.2
2022-09-20T12:30:16.624Z,76.7
2022-09-20T12:31:17.108Z,75.8
2022-09-20T12:32:16.489Z,76.2
2022-09-20T12:33:16.987Z,77.7
2022-09-20T12:34:16.468Z,74.0
2022-09-20T12:35:16.957Z,73.7
2022-09-20T12:36:17.440Z,74.7
2022-09-20T12:37:16.905Z,74.7
2022-09-20T12:38:17.375Z,74.0
2022-09-20T12:39:25.273Z,75.5
2022-09-20T12:40:17.050Z,75.8
2022-09-20T12:41:16.512Z,75.8
2022-09-20T12:42:17.312Z,77.5
2022-09-20T12:43:17.018Z,77.2
2022-09-20T12:44:16.445Z,75.4
2022-09-20T12:45:16.919Z,76.6
2022-09-20T12:46:17.527Z,77.1
2022-09-20T12:47:17.018Z,77.3
2022-09-20T12:48:16.469Z,76.5
2022-09-20T12:49:16.924Z,76.4
2022-09-20T12:50:17.394Z,76.2
2022-09-20T12:51:16.831Z,76.5
2022-09-20T12:52:16.449Z,76.6
2022-09-20T12:53:16.944Z,77.3
2022-09-20T12:54:17.393Z,77.0
2022-09-20T12:55:16.829Z,77.2
2022-09-20T12:56:17.259Z,77.3
2022-09-20T12:57:16.935Z,77.5
2022-09-20T12:58:17.375Z,77.4
2022-09-20T12:59:16.805Z,77.8
2022-09-20T13:00:17.242Z,78.0
2022-09-20T13:01:16.817Z,78.5
2022-09-20T13:02:16.779Z,77.8
2022-09-20T13:03:17.263Z,77.4
2022-09-20T13:04:16.754Z,77.8
2022-09-20T13:05:17.205Z,77.2
2022-09-20T13:06:16.825Z,76.8
2022-09-20T13:07:17.303Z,77.9
2022-09-20T13:08:16.775Z,77.2
2022-09-20T13:09:17.221Z,76.7
2022-09-20T13:10:16.649Z,77.0